Time;durP1;ratioP1;P1;durP2;ratioP2;P2;SDS_P1;SDS_P2;PMS_P1;PMS_P2;Temp;Humidity;BMP_temperature;BMP_pressure;BME280_temperature;BME280_humidity;BME280_pressure;Samples;Min_cycle;Max_cycle;Signal;HPM_P1;HPM_P2
2022/10/22 00:00:12;;;;;;;9.63;6.70;;;13.20;99.90;;;;;;4946584;28;20047;-69
2022/10/22 00:02:38;;;;;;;11.95;7.03;;;13.10;99.90;;;;;;4948819;28;20047;-71
2022/10/22 00:05:04;;;;;;;10.27;6.93;;;13.10;99.90;;;;;;4947326;28;20058;-71
2022/10/22 00:07:30;;;;;;;13.60;7.07;;;13.10;99.90;;;;;;4945945;28;20052;-70
2022/10/22 00:09:55;;;;;;;10.57;6.57;;;13.10;99.90;;;;;;4948754;28;20046;-69
2022/10/22 00:12:21;;;;;;;13.50;6.82;;;13.10;99.90;;;;;;4948223;28;20039;-69
2022/10/22 00:14:47;;;;;;;10.43;6.90;;;13.00;99.90;;;;;;4951746;28;20054;-70
2022/10/22 00:17:13;;;;;;;12.57;7.32;;;13.00;99.90;;;;;;4949433;28;20051;-68
2022/10/22 00:19:39;;;;;;;16.30;6.90;;;13.00;99.90;;;;;;4952933;28;20098;-70
2022/10/22 00:22:05;;;;;;;15.70;7.35;;;13.00;99.90;;;;;;4947989;28;20047;-71
2022/10/22 00:24:32;;;;;;;16.25;7.03;;;12.90;99.90;;;;;;4932836;28;20106;-68
2022/10/22 00:26:57;;;;;;;13.52;7.38;;;12.90;99.90;;;;;;4947342;28;20521;-69
2022/10/22 00:29:23;;;;;;;17.40;7.32;;;12.90;99.90;;;;;;4948502;28;20044;-71
2022/10/22 00:31:49;;;;;;;14.50;6.93;;;12.90;99.90;;;;;;4963922;28;20454;-71
2022/10/22 00:34:20;;;;;;;12.27;7.20;;;12.80;99.90;;;;;;4945864;28;20043;-69
2022/10/22 00:36:46;;;;;;;11.23;6.85;;;12.80;99.90;;;;;;4949181;28;20047;-68
2022/10/22 00:39:15;;;;;;;12.30;6.60;;;12.70;99.90;;;;;;4949258;28;20142;-72
2022/10/22 00:41:45;;;;;;;14.32;6.55;;;12.70;99.90;;;;;;4947315;28;20144;-71
2022/10/22 00:44:48;;;;;;;13.40;5.35;;;12.60;99.90;;;;;;4944768;28;20134;-73
2022/10/22 00:47:14;;;;;;;;;;;12.60;99.90;;;;;;4945629;28;20093;-69
2022/10/22 00:49:40;;;;;;;12.02;5.82;;;12.50;99.90;;;;;;4946730;28;21164;-72
2022/10/22 00:52:06;;;;;;;11.90;6.38;;;12.40;99.90;;;;;;4948240;28;20063;-68
2022/10/22 00:54:33;;;;;;;9.77;6.30;;;12.40;99.90;;;;;;4944806;28;20525;-70
2022/10/22 00:56:59;;;;;;;20.58;5.95;;;12.40;99.90;;;;;;4945922;28;20414;-69
2022/10/22 00:59:26;;;;;;;21.35;6.63;;;12.40;99.90;;;;;;4947087;28;20157;-68
2022/10/22 01:01:52;;;;;;;19.77;8.75;;;12.30;99.90;;;;;;4946502;28;20390;-70
2022/10/22 01:04:19;;;;;;;16.05;10.00;;;12.40;99.90;;;;;;4951372;28;20043;-71
2022/10/22 01:06:46;;;;;;;12.07;10.20;;;12.40;99.90;;;;;;4948286;28;20039;-69
2022/10/22 01:09:30;;;;;;;16.63;10.77;;;12.40;99.90;;;;;;4948817;28;20050;-67
2022/10/22 01:12:22;;;;;;;19.10;11.10;;;12.40;99.90;;;;;;4947539;28;20074;-68
2022/10/22 01:15:09;;;;;;;20.55;11.55;;;12.40;99.90;;;;;;4949985;28;20054;-71
2022/10/22 01:17:58;;;;;;;19.23;11.35;;;12.50;99.90;;;;;;4946509;28;20054;-67
2022/10/22 01:20:38;;;;;;;20.20;11.45;;;12.50;99.90;;;;;;4945451;28;20062;-69
2022/10/22 01:23:30;;;;;;;17.05;11.43;;;12.50;99.90;;;;;;4945482;28;20047;-71
2022/10/22 01:25:59;;;;;;;16.77;11.82;;;12.50;99.90;;;;;;4946786;28;20051;-69
2022/10/22 01:28:55;;;;;;;17.52;11.82;;;12.50;99.90;;;;;;4946502;28;20047;-70
2022/10/22 01:31:24;;;;;;;15.45;10.88;;;12.50;99.90;;;;;;4941984;28;20070;-70
2022/10/22 01:33:52;;;;;;;18.75;12.48;;;12.50;99.90;;;;;;4944275;28;20055;-69
2022/10/22 01:36:18;;;;;;;19.92;11.70;;;12.40;99.90;;;;;;4943303;28;20106;-70
2022/10/22 01:38:45;;;;;;;20.88;12.18;;;12.40;99.90;;;;;;4949041;28;20039;-68
2022/10/22 01:41:11;;;;;;;19.17;11.25;;;12.40;99.90;;;;;;4947618;28;20054;-68
2022/10/22 01:43:37;;;;;;;19.50;12.23;;;12.40;99.90;;;;;;4946609;28;20043;-71
2022/10/22 01:46:04;;;;;;;19.85;11.77;;;12.40;99.90;;;;;;4947584;28;20483;-70
2022/10/22 01:48:55;;;;;;;19.23;11.10;;;12.40;99.90;;;;;;4946613;28;20047;-68
2022/10/22 01:51:32;;;;;;;16.15;8.77;;;12.30;99.90;;;;;;4947394;28;20514;-68
2022/10/22 01:54:22;;;;;;;21.67;9.23;;;12.30;99.90;;;;;;4945955;28;20059;-69
2022/10/22 01:57:29;;;;;;;21.85;10.55;;;12.20;99.90;;;;;;4951005;28;20062;-72
2022/10/22 01:59:58;;;;;;;17.95;10.48;;;12.20;99.90;;;;;;4945261;28;20094;-70
2022/10/22 02:02:46;;;;;;;18.85;10.35;;;12.20;99.90;;;;;;4944820;28;20050;-71
2022/10/22 02:05:27;;;;;;;19.25;9.75;;;12.20;99.90;;;;;;4945576;28;20042;-69
2022/10/22 02:07:58;;;;;;;22.13;11.60;;;12.10;99.90;;;;;;4947598;28;20057;-68
2022/10/22 02:10:25;;;;;;;20.92;13.07;;;12.10;99.90;;;;;;4948167;28;20131;-68
2022/10/22 02:12:53;;;;;;;25.15;13.48;;;12.10;99.90;;;;;;4948658;28;20453;-69
2022/10/22 02:15:20;;;;;;;20.38;12.88;;;12.20;99.90;;;;;;4946545;28;20041;-69
2022/10/22 02:17:48;;;;;;;18.30;13.30;;;12.30;99.90;;;;;;4943578;28;20047;-69
2022/10/22 02:20:25;;;;;;;20.08;12.43;;;12.20;99.90;;;;;;4946746;28;20108;-70
2022/10/22 02:22:51;;;;;;;20.90;13.00;;;12.20;99.90;;;;;;4946335;28;20059;-69
2022/10/22 02:25:17;;;;;;;22.48;12.95;;;12.20;99.90;;;;;;4947977;28;20105;-70
2022/10/22 02:27:44;;;;;;;22.98;13.95;;;12.20;99.90;;;;;;4945086;28;20464;-69
2022/10/22 02:30:20;;;;;;;17.80;13.35;;;12.10;99.90;;;;;;4943243;28;20052;-69
2022/10/22 02:32:54;;;;;;;22.40;14.65;;;12.10;99.90;;;;;;4946360;28;20050;-71
2022/10/22 02:35:23;;;;;;;18.63;14.50;;;12.10;99.90;;;;;;4944696;28;20098;-70
2022/10/22 02:37:50;;;;;;;26.23;15.55;;;12.20;99.90;;;;;;4943725;28;20054;-71
2022/10/22 02:40:16;;;;;;;24.33;15.32;;;12.20;99.90;;;;;;4946007;28;20051;-68
2022/10/22 02:42:42;;;;;;;22.88;15.07;;;12.20;99.90;;;;;;4946170;28;20043;-70
2022/10/22 02:45:08;;;;;;;23.33;13.88;;;12.10;99.90;;;;;;4947460;28;20394;-70
2022/10/22 02:47:33;;;;;;;23.08;14.73;;;12.20;99.90;;;;;;4943038;28;20073;-67
2022/10/22 02:49:59;;;;;;;23.33;14.52;;;12.10;99.90;;;;;;4948022;28;20490;-71
2022/10/22 02:52:25;;;;;;;21.08;13.60;;;12.10;99.90;;;;;;4948650;28;20031;-71
2022/10/22 02:54:50;;;;;;;19.27;14.00;;;12.10;99.90;;;;;;4947973;28;20450;-73
2022/10/22 02:57:16;;;;;;;21.00;14.05;;;12.10;99.90;;;;;;4945975;28;20043;-68
2022/10/22 02:59:41;;;;;;;29.77;14.85;;;12.10;99.90;;;;;;4945700;28;20043;-69
2022/10/22 03:02:07;;;;;;;24.88;13.15;;;12.00;99.90;;;;;;4947051;28;20137;-71
2022/10/22 03:04:33;;;;;;;22.60;14.30;;;12.00;99.90;;;;;;4948381;28;20180;-70
2022/10/22 03:06:59;;;;;;;25.27;15.20;;;11.90;99.90;;;;;;4946930;28;20135;-68
2022/10/22 03:09:25;;;;;;;23.35;15.02;;;12.00;99.90;;;;;;4944125;28;20768;-70
2022/10/22 03:11:51;;;;;;;25.10;15.95;;;12.00;99.90;;;;;;4945700;28;20484;-72
2022/10/22 03:14:17;;;;;;;23.13;15.27;;;12.00;99.90;;;;;;4944722;28;20051;-68
2022/10/22 03:16:42;;;;;;;26.77;16.25;;;12.00;99.90;;;;;;4948169;28;20458;-70
2022/10/22 03:19:08;;;;;;;27.83;17.65;;;12.00;99.90;;;;;;4943258;28;20082;-67
2022/10/22 03:21:39;;;;;;;24.77;17.48;;;12.10;99.90;;;;;;4945068;28;20047;-69
2022/10/22 03:24:11;;;;;;;32.28;17.38;;;12.10;99.90;;;;;;4944170;28;20039;-70
2022/10/22 03:26:38;;;;;;;22.50;16.33;;;12.20;99.90;;;;;;4949014;28;20043;-69
2022/10/22 03:29:03;;;;;;;29.08;17.08;;;12.20;99.90;;;;;;4948414;28;20074;-74
2022/10/22 03:31:29;;;;;;;24.45;17.17;;;12.10;99.90;;;;;;4949618;28;20078;-71
2022/10/22 03:33:55;;;;;;;30.55;16.73;;;12.10;99.90;;;;;;4946424;28;20047;-68
2022/10/22 03:36:20;;;;;;;25.55;17.15;;;12.10;99.90;;;;;;4945668;28;20051;-69
2022/10/22 03:38:46;;;;;;;23.27;16.48;;;12.10;99.90;;;;;;4947528;28;20054;-68
2022/10/22 03:41:12;;;;;;;22.00;16.40;;;12.10;99.90;;;;;;4950133;28;20039;-70
2022/10/22 03:43:39;;;;;;;29.77;18.00;;;12.10;99.90;;;;;;4948678;28;20043;-70
2022/10/22 03:46:05;;;;;;;35.70;17.50;;;12.10;99.90;;;;;;4948360;28;20113;-69
2022/10/22 03:48:30;;;;;;;27.42;17.38;;;12.00;99.90;;;;;;4948022;28;20047;-69
2022/10/22 03:50:56;;;;;;;25.80;17.92;;;12.00;99.90;;;;;;4950137;28;20071;-71
2022/10/22 03:53:22;;;;;;;27.77;18.17;;;12.00;99.90;;;;;;4949530;28;20437;-70
2022/10/22 03:55:48;;;;;;;27.73;18.35;;;12.00;99.90;;;;;;4953882;28;20524;-72
2022/10/22 03:58:13;;;;;;;26.55;18.33;;;12.00;99.90;;;;;;4950153;28;20102;-71
2022/10/22 04:00:39;;;;;;;26.70;17.60;;;12.00;99.90;;;;;;4948499;28;20391;-69
2022/10/22 04:03:05;;;;;;;25.95;18.25;;;12.00;99.90;;;;;;4949763;28;20032;-70
2022/10/22 04:05:32;;;;;;;28.23;18.80;;;12.00;99.90;;;;;;4948995;28;20043;-68
2022/10/22 04:07:58;;;;;;;27.85;19.20;;;12.00;99.90;;;;;;4946003;28;20052;-68
2022/10/22 04:10:23;;;;;;;33.92;18.67;;;12.00;99.90;;;;;;4945892;28;20052;-71
2022/10/22 04:12:49;;;;;;;32.92;18.92;;;12.00;99.90;;;;;;4948592;28;20130;-68
2022/10/22 04:15:15;;;;;;;26.58;18.33;;;11.90;99.90;;;;;;4949837;28;20066;-70
2022/10/22 04:17:40;;;;;;;28.00;16.90;;;11.90;99.90;;;;;;4949159;28;20047;-70
2022/10/22 04:20:06;;;;;;;27.90;18.10;;;11.90;99.90;;;;;;4952615;28;20109;-69
2022/10/22 04:22:33;;;;;;;27.10;18.33;;;11.90;99.90;;;;;;4948965;28;20055;-71
2022/10/22 04:24:59;;;;;;;31.85;17.98;;;11.90;99.90;;;;;;4949772;28;20047;-69
2022/10/22 04:27:27;;;;;;;30.95;18.13;;;11.90;99.90;;;;;;4948623;28;20057;-68
2022/10/22 04:29:53;;;;;;;28.95;17.95;;;11.80;99.90;;;;;;4933428;28;20541;-70
2022/10/22 04:32:18;;;;;;;32.33;18.73;;;11.90;99.90;;;;;;4949098;28;20045;-73
2022/10/22 04:34:44;;;;;;;28.40;18.63;;;11.90;99.90;;;;;;4945299;28;20078;-70
2022/10/22 04:37:10;;;;;;;25.92;17.60;;;11.90;99.90;;;;;;4948631;28;20497;-70
2022/10/22 04:39:35;;;;;;;29.35;18.85;;;11.90;99.90;;;;;;4948636;28;20523;-71
2022/10/22 04:42:01;;;;;;;30.38;18.70;;;11.90;99.90;;;;;;4949522;28;20043;-70
2022/10/22 04:44:26;;;;;;;30.15;18.42;;;11.90;99.90;;;;;;4948718;28;20047;-70
2022/10/22 04:46:52;;;;;;;32.97;19.63;;;11.90;99.90;;;;;;4946358;28;20115;-72
2022/10/22 04:49:18;;;;;;;30.92;18.95;;;11.90;99.90;;;;;;4947280;28;20738;-69
2022/10/22 04:51:43;;;;;;;31.33;18.67;;;11.90;99.90;;;;;;4947947;28;20501;-70
2022/10/22 04:54:09;;;;;;;32.10;19.40;;;11.90;99.90;;;;;;4949958;28;20042;-70
2022/10/22 04:56:34;;;;;;;31.65;19.85;;;11.90;99.90;;;;;;4948512;28;20057;-69
2022/10/22 04:59:06;;;;;;;31.77;19.60;;;11.90;99.90;;;;;;4946601;28;20047;-70
2022/10/22 05:01:33;;;;;;;30.55;19.20;;;11.90;99.90;;;;;;4961511;28;20047;-69
2022/10/22 05:04:00;;;;;;;34.65;19.83;;;11.90;99.90;;;;;;4947035;28;20517;-70
2022/10/22 05:06:28;;;;;;;30.10;19.60;;;11.90;99.90;;;;;;4944995;28;20062;-69
2022/10/22 05:08:57;;;;;;;29.33;18.50;;;11.90;99.90;;;;;;4945549;28;20058;-69
2022/10/22 05:11:28;;;;;;;34.78;18.75;;;11.90;99.90;;;;;;4948097;28;20043;-72
2022/10/22 05:13:58;;;;;;;35.85;19.83;;;11.90;99.90;;;;;;4948866;28;20047;-69
2022/10/22 05:16:24;;;;;;;33.00;20.05;;;11.90;99.90;;;;;;4948313;28;20049;-68
2022/10/22 05:18:50;;;;;;;30.63;20.05;;;11.90;99.90;;;;;;4949461;28;20066;-68
2022/10/22 05:21:17;;;;;;;33.67;20.00;;;11.90;99.90;;;;;;4945348;28;20051;-69
2022/10/22 05:23:44;;;;;;;31.67;19.23;;;11.90;99.90;;;;;;4948554;28;20049;-70
2022/10/22 05:26:12;;;;;;;33.75;19.88;;;11.90;99.90;;;;;;4945749;28;20255;-69
2022/10/22 05:28:38;;;;;;;35.22;19.65;;;11.90;99.90;;;;;;4946551;28;20046;-70
2022/10/22 05:31:05;;;;;;;28.63;18.73;;;11.90;99.90;;;;;;4945407;28;20159;-69
2022/10/22 05:33:32;;;;;;;26.42;19.15;;;11.90;99.90;;;;;;4941667;28;20489;-71
2022/10/22 05:35:58;;;;;;;33.08;19.38;;;11.90;99.90;;;;;;4943665;28;20051;-69
2022/10/22 05:38:24;;;;;;;34.20;19.10;;;11.90;99.90;;;;;;4945125;28;20058;-70
2022/10/22 05:41:01;;;;;;;34.22;19.65;;;12.00;99.90;;;;;;4949230;28;20047;-71
2022/10/22 05:43:27;;;;;;;28.92;18.25;;;12.00;99.90;;;;;;4961344;28;20043;-68
2022/10/22 05:45:53;;;;;;;29.60;19.23;;;12.00;99.90;;;;;;4945703;28;20058;-69
2022/10/22 05:48:19;;;;;;;35.60;19.15;;;11.90;99.90;;;;;;4946760;28;20036;-70
2022/10/22 05:50:49;;;;;;;34.20;19.30;;;12.00;99.90;;;;;;4945511;28;20122;-69
2022/10/22 05:53:17;;;;;;;37.60;19.13;;;12.00;99.90;;;;;;4948617;28;20051;-70
2022/10/22 05:55:42;;;;;;;33.22;19.23;;;12.10;99.90;;;;;;4947702;28;20405;-69
2022/10/22 05:58:09;;;;;;;31.42;17.90;;;12.00;99.90;;;;;;4946046;28;20133;-69
2022/10/22 06:00:34;;;;;;;32.10;18.65;;;12.00;99.90;;;;;;4944886;28;20478;-70
2022/10/22 06:03:00;;;;;;;29.05;18.52;;;12.10;99.90;;;;;;4945836;28;20039;-70
2022/10/22 06:05:26;;;;;;;37.38;19.83;;;12.10;99.90;;;;;;4943619;28;20055;-72
2022/10/22 06:07:52;;;;;;;33.58;18.17;;;12.10;99.90;;;;;;4945521;28;20549;-69
2022/10/22 06:10:20;;;;;;;36.25;19.40;;;12.10;99.90;;;;;;4946878;28;20055;-68
2022/10/22 06:12:46;;;;;;;31.05;18.23;;;12.10;99.90;;;;;;4948252;28;20054;-71
2022/10/22 06:15:14;;;;;;;30.20;18.35;;;12.10;99.90;;;;;;4948431;28;20070;-69
2022/10/22 06:17:40;;;;;;;30.50;17.92;;;12.10;99.90;;;;;;4943467;28;20563;-70
2022/10/22 06:20:07;;;;;;;31.17;18.35;;;12.10;99.90;;;;;;4947632;28;20039;-71
2022/10/22 06:22:32;;;;;;;34.65;18.65;;;12.10;99.90;;;;;;4946145;28;20186;-69
2022/10/22 06:24:58;;;;;;;29.20;18.27;;;12.10;99.90;;;;;;4945881;28;20745;-71
2022/10/22 06:27:23;;;;;;;31.00;18.05;;;12.10;99.90;;;;;;4943626;28;20055;-69
2022/10/22 06:29:49;;;;;;;35.08;18.05;;;12.10;99.90;;;;;;4948106;28;20054;-69
2022/10/22 06:32:15;;;;;;;31.73;18.13;;;12.20;99.90;;;;;;4940428;28;20047;-68
2022/10/22 06:34:40;;;;;;;32.15;18.83;;;12.20;99.90;;;;;;4945201;28;20071;-71
2022/10/22 06:37:06;;;;;;;32.72;17.38;;;12.20;99.90;;;;;;4948580;28;20046;-70
2022/10/22 06:39:31;;;;;;;30.55;17.85;;;12.30;99.90;;;;;;4952800;28;20054;-71
2022/10/22 06:41:57;;;;;;;33.53;17.90;;;12.30;99.90;;;;;;4952677;28;20117;-69
2022/10/22 06:44:22;;;;;;;28.83;16.63;;;12.30;99.90;;;;;;4981695;23;20050;-69
2022/10/22 06:46:51;;;;;;;31.15;16.65;;;12.30;99.90;;;;;;4969750;28;20063;-71
2022/10/22 06:49:17;;;;;;;29.40;16.27;;;12.40;99.90;;;;;;4967984;28;20122;-70
2022/10/22 06:51:43;;;;;;;27.70;16.13;;;12.40;99.90;;;;;;4966047;28;20050;-71
2022/10/22 06:54:09;;;;;;;29.73;16.42;;;12.40;99.90;;;;;;4971041;28;20401;-68
2022/10/22 06:56:35;;;;;;;29.55;14.65;;;12.40;99.90;;;;;;4971472;28;20505;-67
2022/10/22 06:59:00;;;;;;;26.45;15.13;;;12.40;99.90;;;;;;4969810;28;20038;-71
2022/10/22 07:01:30;;;;;;;30.13;14.70;;;12.50;99.90;;;;;;4971295;28;20043;-73
2022/10/22 07:03:56;;;;;;;23.45;14.43;;;12.50;99.90;;;;;;4969333;28;20049;-71
2022/10/22 07:06:23;;;;;;;26.35;14.32;;;12.60;99.90;;;;;;4974666;28;20413;-69
2022/10/22 07:08:49;;;;;;;32.08;14.75;;;12.60;99.90;;;;;;4976836;28;20066;-70
2022/10/22 07:11:23;;;;;;;29.20;14.18;;;12.70;99.90;;;;;;4975121;28;20089;-70
2022/10/22 07:13:49;;;;;;;24.35;14.82;;;12.80;99.90;;;;;;4979026;28;20043;-70
2022/10/22 07:16:15;;;;;;;27.13;14.13;;;12.80;99.90;;;;;;4974798;28;20049;-72
2022/10/22 07:18:43;;;;;;;32.35;14.57;;;12.90;99.90;;;;;;4972054;28;20042;-70
2022/10/22 07:21:10;;;;;;;29.88;14.15;;;12.90;99.90;;;;;;4975787;28;20558;-70
2022/10/22 07:23:36;;;;;;;29.38;13.07;;;13.00;99.90;;;;;;4978313;28;20093;-71
2022/10/22 07:26:05;;;;;;;25.83;12.45;;;13.00;99.90;;;;;;4978557;28;20046;-70
2022/10/22 07:28:32;;;;;;;27.17;13.07;;;13.10;99.90;;;;;;4975248;28;20046;-69
2022/10/22 07:30:58;;;;;;;21.88;12.68;;;13.10;99.90;;;;;;4975738;28;20071;-71
2022/10/22 07:33:24;;;;;;;27.23;12.07;;;13.10;99.90;;;;;;4975162;28;20096;-69
2022/10/22 07:35:49;;;;;;;25.35;11.93;;;13.20;99.90;;;;;;4976301;28;20043;-69
2022/10/22 07:38:15;;;;;;;23.23;11.85;;;13.20;99.90;;;;;;4977624;28;20125;-69
2022/10/22 07:40:41;;;;;;;24.52;12.23;;;13.30;99.90;;;;;;4977615;28;20050;-71
2022/10/22 07:43:06;;;;;;;20.55;11.75;;;13.30;99.90;;;;;;4972369;28;20130;-70
2022/10/22 07:45:32;;;;;;;23.58;10.73;;;13.40;99.90;;;;;;4977781;28;20085;-70
2022/10/22 07:47:59;;;;;;;22.52;11.07;;;13.30;99.90;;;;;;4961377;28;20051;-71
2022/10/22 07:50:25;;;;;;;18.60;10.60;;;13.40;99.90;;;;;;4976442;28;20042;-69
2022/10/22 07:52:51;;;;;;;24.30;10.70;;;13.40;99.90;;;;;;4970912;28;20035;-68
2022/10/22 07:55:16;;;;;;;24.42;10.27;;;13.40;99.90;;;;;;4977150;28;20070;-68
2022/10/22 07:57:42;;;;;;;23.63;10.80;;;13.40;99.90;;;;;;4974611;28;20493;-70
2022/10/22 08:00:08;;;;;;;25.55;10.50;;;13.40;99.90;;;;;;4973196;28;20141;-68
2022/10/22 08:02:34;;;;;;;24.15;9.90;;;13.50;99.90;;;;;;4969212;28;20058;-70
2022/10/22 08:05:00;;;;;;;21.95;10.48;;;13.50;99.90;;;;;;4973252;28;20073;-70
2022/10/22 08:07:25;;;;;;;25.23;9.93;;;13.50;99.90;;;;;;4977389;28;20053;-68
2022/10/22 08:09:51;;;;;;;20.33;10.25;;;13.50;99.90;;;;;;4971456;28;20121;-69
2022/10/22 08:12:17;;;;;;;20.17;9.45;;;13.50;99.90;;;;;;4977918;28;20050;-71
2022/10/22 08:14:43;;;;;;;26.33;9.77;;;13.50;99.90;;;;;;4976988;28;20035;-71
2022/10/22 08:17:08;;;;;;;19.98;9.68;;;13.60;99.90;;;;;;4972675;28;20129;-69
2022/10/22 08:19:34;;;;;;;23.00;9.57;;;13.50;99.90;;;;;;4969299;28;20078;-71
2022/10/22 08:22:00;;;;;;;20.63;9.27;;;13.60;99.90;;;;;;4970908;28;20144;-67
2022/10/22 08:24:26;;;;;;;19.45;9.57;;;13.60;99.90;;;;;;4967161;28;20039;-71
2022/10/22 08:26:54;;;;;;;24.13;10.15;;;13.60;99.90;;;;;;4971862;28;20054;-68
2022/10/22 08:29:22;;;;;;;20.48;9.73;;;13.60;99.90;;;;;;4967647;28;20049;-68
2022/10/22 08:31:48;;;;;;;27.92;10.40;;;13.70;99.90;;;;;;4974394;28;20038;-68
2022/10/22 08:34:13;;;;;;;20.83;9.70;;;13.70;99.90;;;;;;4973280;28;20270;-69
2022/10/22 08:36:39;;;;;;;22.77;9.82;;;13.70;99.90;;;;;;4969678;28;20047;-70
2022/10/22 08:39:04;;;;;;;19.65;8.70;;;13.70;99.90;;;;;;4973260;28;20145;-69
2022/10/22 08:41:50;;;;;;;16.73;8.90;;;13.80;99.90;;;;;;4968281;28;20401;-68
2022/10/22 08:44:51;;;;;;;16.25;8.32;;;13.90;99.90;;;;;;4967140;28;20047;-69
2022/10/22 08:47:23;;;;;;;17.50;8.15;;;13.90;99.90;;;;;;4964159;28;20548;-71
2022/10/22 08:49:49;;;;;;;24.93;8.77;;;14.00;99.90;;;;;;4964601;28;20050;-71
2022/10/22 08:52:19;;;;;;;18.48;7.68;;;14.00;99.90;;;;;;4970603;28;20553;-71
2022/10/22 08:54:52;;;;;;;20.98;8.00;;;14.10;99.90;;;;;;4967119;28;20046;-71
2022/10/22 08:57:48;;;;;;;16.85;8.15;;;14.10;99.90;;;;;;4967828;28;20058;-70
2022/10/22 09:00:27;;;;;;;20.40;8.63;;;14.10;99.90;;;;;;4968635;28;20050;-70
2022/10/22 09:03:25;;;;;;;16.92;7.55;;;14.30;99.90;;;;;;4970970;28;20493;-68
2022/10/22 09:06:01;;;;;;;20.60;7.60;;;14.40;99.90;;;;;;4967247;28;20077;-67
2022/10/22 09:08:27;;;;;;;15.38;6.60;;;14.40;99.90;;;;;;4969474;28;20043;-68
2022/10/22 09:11:01;;;;;;;19.83;6.65;;;14.50;99.90;;;;;;4971204;28;20501;-68
2022/10/22 09:13:27;;;;;;;12.90;6.13;;;14.60;99.90;;;;;;4959797;28;20047;-69
2022/10/22 09:15:59;;;;;;;17.65;5.80;;;14.70;99.90;;;;;;4968434;28;20049;-68
2022/10/22 09:18:40;;;;;;;18.23;7.10;;;14.80;99.90;;;;;;4963697;28;20062;-69
2022/10/22 09:21:16;;;;;;;20.85;6.20;;;14.90;99.90;;;;;;4966820;28;20200;-71
2022/10/22 09:24:08;;;;;;;18.15;5.57;;;15.00;99.90;;;;;;4966220;28;20101;-68
2022/10/22 09:26:37;;;;;;;13.93;4.90;;;15.10;99.90;;;;;;4965702;28;20047;-68
2022/10/22 09:29:03;;;;;;;15.60;6.07;;;15.10;99.90;;;;;;4965598;28;20043;-69
2022/10/22 09:31:30;;;;;;;18.27;5.18;;;15.20;99.90;;;;;;4965326;28;20556;-71
2022/10/22 09:33:58;;;;;;;16.13;5.00;;;15.20;99.90;;;;;;4963064;28;20134;-70
2022/10/22 09:36:27;;;;;;;12.65;4.72;;;15.30;99.90;;;;;;4970298;28;20299;-71
2022/10/22 09:38:52;;;;;;;14.27;4.82;;;15.30;99.90;;;;;;4965431;28;20130;-69
2022/10/22 09:41:22;;;;;;;19.05;4.70;;;15.30;99.90;;;;;;4964114;28;20060;-69
2022/10/22 09:43:48;;;;;;;19.05;5.43;;;15.30;99.90;;;;;;4966175;28;20054;-69
2022/10/22 09:46:23;;;;;;;11.18;4.18;;;15.30;99.90;;;;;;4966465;28;20059;-72
2022/10/22 09:49:02;;;;;;;13.68;4.57;;;15.40;99.90;;;;;;4964640;28;20054;-71
2022/10/22 09:51:40;;;;;;;14.25;4.15;;;15.40;99.90;;;;;;4968715;28;20137;-71
2022/10/22 09:54:16;;;;;;;11.30;4.18;;;15.40;99.90;;;;;;4964636;28;20055;-73
2022/10/22 09:56:49;;;;;;;14.18;4.43;;;15.40;99.90;;;;;;4967163;28;20042;-68
2022/10/22 09:59:16;;;;;;;18.02;5.15;;;15.40;99.90;;;;;;4968888;28;20050;-69
2022/10/22 10:01:43;;;;;;;14.82;4.65;;;15.40;99.90;;;;;;4966097;28;20042;-68
2022/10/22 10:04:11;;;;;;;12.80;4.25;;;15.40;99.90;;;;;;4968077;28;20066;-70
2022/10/22 10:06:39;;;;;;;16.40;4.68;;;15.40;99.90;;;;;;4967600;28;20261;-67
2022/10/22 10:09:15;;;;;;;12.95;4.65;;;15.40;99.90;;;;;;4968670;28;20042;-70
2022/10/22 10:11:57;;;;;;;11.40;4.78;;;15.40;99.90;;;;;;4960292;28;20066;-70
2022/10/22 10:14:32;;;;;;;12.70;4.38;;;15.40;99.90;;;;;;4964689;28;20452;-68
2022/10/22 10:27:29;;;;;;;12.23;4.25;;;15.60;99.90;;;;;;5856579;23;20643;-68
2022/10/22 10:30:22;;;;;;;13.80;4.47;;;15.70;99.90;;;;;;4961532;28;20058;-68
2022/10/22 10:33:18;;;;;;;11.25;4.45;;;15.80;99.90;;;;;;4965757;28;20043;-69
2022/10/22 10:36:02;;;;;;;13.60;4.75;;;15.90;99.90;;;;;;4964839;28;20142;-68
2022/10/22 10:38:53;;;;;;;14.52;4.57;;;15.90;99.90;;;;;;4950129;28;20714;-68
2022/10/22 10:41:27;;;;;;;20.67;4.43;;;15.90;99.90;;;;;;4942705;28;20449;-68
2022/10/22 10:44:04;;;;;;;14.85;4.50;;;15.90;99.90;;;;;;4944586;28;20051;-69
2022/10/22 10:46:38;;;;;;;13.20;4.80;;;15.90;99.90;;;;;;4946209;28;20054;-68
2022/10/22 10:49:15;;;;;;;18.73;4.80;;;15.90;99.90;;;;;;4946238;28;20047;-68
2022/10/22 10:52:27;;;;;;;12.15;4.60;;;15.90;99.90;;;;;;4946213;28;20374;-68
2022/10/22 10:55:10;;;;;;;15.20;5.25;;;15.90;99.90;;;;;;4962431;28;20158;-68
2022/10/22 10:57:52;;;;;;;15.70;5.20;;;15.90;99.90;;;;;;4947161;28;20047;-67
2022/10/22 11:00:20;;;;;;;15.32;5.38;;;15.90;99.90;;;;;;4946837;28;20692;-68
2022/10/22 11:03:04;;;;;;;15.18;5.70;;;15.90;99.90;;;;;;4946290;28;20050;-66
2022/10/22 11:05:52;;;;;;;13.23;5.65;;;15.80;99.90;;;;;;4948698;28;20050;-67
2022/10/22 11:08:30;;;;;;;16.55;5.75;;;15.70;99.90;;;;;;4961858;28;20159;-66
2022/10/22 11:11:09;;;;;;;16.63;6.00;;;15.70;99.90;;;;;;4945518;28;20044;-69
2022/10/22 11:13:48;;;;;;;13.48;6.25;;;15.70;99.90;;;;;;4947846;28;20430;-68
2022/10/22 11:16:26;;;;;;;18.20;6.43;;;15.60;99.90;;;;;;4950061;28;20085;-68
2022/10/22 11:19:04;;;;;;;19.40;6.68;;;15.60;99.90;;;;;;4944051;28;20146;-66
2022/10/22 11:21:53;;;;;;;19.23;6.40;;;15.60;99.90;;;;;;4962406;28;20043;-68
2022/10/22 11:24:27;;;;;;;13.55;5.50;;;15.60;99.90;;;;;;4946049;28;20058;-68
2022/10/22 11:27:10;;;;;;;17.88;6.35;;;15.60;99.90;;;;;;4962957;28;20051;-70
2022/10/22 11:29:44;;;;;;;;;;;15.60;99.90;;;;;;4941898;28;20093;-67
2022/10/22 11:32:16;;;;;;;15.10;6.43;;;15.60;99.90;;;;;;4944046;28;19922;-69
2022/10/22 11:34:49;;;;;;;13.75;5.85;;;15.70;99.90;;;;;;4945486;28;20129;-71
2022/10/22 11:37:16;;;;;;;18.48;6.45;;;15.80;99.90;;;;;;4944710;28;20058;-66
2022/10/22 11:39:51;;;;;;;13.93;6.00;;;15.80;99.90;;;;;;4944975;28;20066;-66
2022/10/22 11:42:28;;;;;;;18.00;6.03;;;15.90;99.90;;;;;;4947770;28;20534;-69
2022/10/22 11:45:01;;;;;;;17.33;6.18;;;16.00;99.90;;;;;;4945695;28;20047;-68
2022/10/22 11:47:52;;;;;;;15.57;6.28;;;16.00;99.90;;;;;;4945425;28;20047;-68
2022/10/22 11:50:26;;;;;;;14.13;6.22;;;16.10;99.90;;;;;;4937354;28;20506;-67
2022/10/22 11:53:06;;;;;;;13.90;5.70;;;16.10;99.90;;;;;;4949856;28;20051;-70
2022/10/22 11:55:46;;;;;;;15.23;5.50;;;16.30;99.90;;;;;;4949889;28;20142;-70
2022/10/22 11:58:27;;;;;;;15.52;5.88;;;16.30;99.90;;;;;;4947756;28;20079;-68
2022/10/22 12:01:00;;;;;;;15.38;5.75;;;16.40;99.90;;;;;;4948946;28;20057;-70
2022/10/22 12:03:32;;;;;;;11.00;5.25;;;16.40;99.90;;;;;;4949904;28;20094;-67
2022/10/22 12:06:04;;;;;;;19.58;5.18;;;16.50;99.90;;;;;;4949154;28;22155;-69
2022/10/22 12:08:31;;;;;;;14.37;5.13;;;16.60;99.90;;;;;;4949731;28;20094;-71
2022/10/22 12:11:26;;;;;;;21.80;5.10;;;16.70;99.90;;;;;;4931482;28;20298;-67
2022/10/22 12:14:25;;;;;;;17.50;4.43;;;16.70;99.90;;;;;;4933847;28;20126;-68
2022/10/22 12:16:52;;;;;;;13.15;4.43;;;16.80;99.90;;;;;;4948727;28;20050;-68
2022/10/22 12:19:21;;;;;;;12.38;4.65;;;16.80;99.90;;;;;;4929321;28;20103;-67
2022/10/22 12:21:52;;;;;;;15.25;4.60;;;16.80;99.90;;;;;;4949159;28;20055;-66
2022/10/22 12:24:21;;;;;;;13.52;4.40;;;16.70;99.90;;;;;;4949345;28;20051;-69
2022/10/22 12:29:22;;;;;;;15.23;4.40;;;16.60;99.90;;;;;;5675197;23;20047;-69
2022/10/22 12:34:24;;;;;;;9.40;4.50;;;16.50;99.90;;;;;;5315447;23;20047;-69
2022/10/22 12:36:52;;;;;;;16.70;4.72;;;16.40;99.90;;;;;;4967316;28;20047;-69
2022/10/22 12:39:20;;;;;;;11.65;4.38;;;16.40;99.90;;;;;;4971596;28;20519;-69
2022/10/22 12:41:46;;;;;;;13.60;4.00;;;16.30;99.90;;;;;;4970775;28;20137;-69
2022/10/22 12:44:15;;;;;;;15.93;4.35;;;16.30;99.90;;;;;;4983160;28;20094;-69
2022/10/22 12:46:43;;;;;;;14.90;4.05;;;16.20;99.90;;;;;;4972256;28;20066;-70
2022/10/22 12:49:19;;;;;;;16.33;4.57;;;16.20;99.90;;;;;;4970024;28;20042;-69
2022/10/22 12:51:46;;;;;;;17.10;4.03;;;16.30;99.90;;;;;;4970504;28;20039;-71
2022/10/22 12:54:32;;;;;;;10.80;3.80;;;16.20;99.90;;;;;;4974495;28;20035;-69
2022/10/22 12:56:59;;;;;;;19.52;4.72;;;16.30;99.90;;;;;;4968701;28;20078;-69
2022/10/22 12:59:33;;;;;;;12.65;3.53;;;16.40;99.90;;;;;;4966234;28;20700;-71
2022/10/22 13:02:00;;;;;;;14.00;3.47;;;16.40;99.90;;;;;;4965871;28;20049;-72
2022/10/22 13:07:11;;;;;;;13.65;3.72;;;16.60;99.90;;;;;;5991138;22;20045;-68